sensor_id;sensor_type;location;lat;lon;timestamp;pressure;altitude;pressure_sealevel;temperature;humidity
20368;BME280;10343;52.402;9.796;2023-01-29T00:02:17;102252.88;;;6.06;58.65
20368;BME280;10343;52.402;9.796;2023-01-29T00:04:46;102251.03;;;6.02;58.51
20368;BME280;10343;52.402;9.796;2023-01-29T00:07:14;102251.66;;;5.90;58.91
20368;BME280;10343;52.402;9.796;2023-01-29T00:09:42;102252.81;;;5.63;59.25
20368;BME280;10343;52.402;9.796;2023-01-29T00:12:18;102251.44;;;5.81;59.04
20368;BME280;10343;52.402;9.796;2023-01-29T00:14:46;102248.69;;;5.74;59.33
20368;BME280;10343;52.402;9.796;2023-01-29T00:17:13;102242.69;;;5.82;58.87
20368;BME280;10343;52.402;9.796;2023-01-29T00:19:41;102244.28;;;6.13;57.72
20368;BME280;10343;52.402;9.796;2023-01-29T00:22:11;102240.81;;;5.76;58.03
20368;BME280;10343;52.402;9.796;2023-01-29T00:24:39;102242.50;;;5.72;59.17
20368;BME280;10343;52.402;9.796;2023-01-29T00:27:06;102236.63;;;5.84;59.10
20368;BME280;10343;52.402;9.796;2023-01-29T00:29:34;102237.72;;;5.54;59.63
20368;BME280;10343;52.402;9.796;2023-01-29T00:32:02;102238.03;;;5.70;59.54
20368;BME280;10343;52.402;9.796;2023-01-29T00:34:31;102230.66;;;5.53;59.85
20368;BME280;10343;52.402;9.796;2023-01-29T00:36:59;102236.59;;;5.43;60.10
20368;BME280;10343;52.402;9.796;2023-01-29T00:39:36;102237.16;;;5.69;59.63
20368;BME280;10343;52.402;9.796;2023-01-29T00:42:13;102238.19;;;5.76;59.34
20368;BME280;10343;52.402;9.796;2023-01-29T00:44:59;102234.56;;;5.71;59.97
20368;BME280;10343;52.402;9.796;2023-01-29T00:47:27;102231.50;;;5.52;59.66
20368;BME280;10343;52.402;9.796;2023-01-29T00:49:59;102244.13;;;5.67;59.72
20368;BME280;10343;52.402;9.796;2023-01-29T00:52:27;102241.50;;;5.67;59.98
20368;BME280;10343;52.402;9.796;2023-01-29T00:54:58;102236.16;;;5.64;60.15
20368;BME280;10343;52.402;9.796;2023-01-29T00:57:28;102228.97;;;5.55;60.39
20368;BME280;10343;52.402;9.796;2023-01-29T00:59:57;102232.66;;;5.64;60.12
20368;BME280;10343;52.402;9.796;2023-01-29T01:02:26;102238.78;;;5.63;60.21
20368;BME280;10343;52.402;9.796;2023-01-29T01:05:14;102239.56;;;5.58;60.42
20368;BME280;10343;52.402;9.796;2023-01-29T01:07:46;102235.44;;;5.71;60.12
20368;BME280;10343;52.402;9.796;2023-01-29T01:10:17;102235.38;;;5.68;60.49
20368;BME280;10343;52.402;9.796;2023-01-29T01:12:50;102227.66;;;5.76;60.57
20368;BME280;10343;52.402;9.796;2023-01-29T01:15:21;102220.09;;;5.91;59.40
20368;BME280;10343;52.402;9.796;2023-01-29T01:17:51;102213.06;;;5.92;59.07
20368;BME280;10343;52.402;9.796;2023-01-29T01:20:20;102212.41;;;5.59;60.51
20368;BME280;10343;52.402;9.796;2023-01-29T01:22:51;102220.19;;;5.56;60.51
20368;BME280;10343;52.402;9.796;2023-01-29T01:25:21;102210.59;;;5.57;60.87
20368;BME280;10343;52.402;9.796;2023-01-29T01:27:51;102212.72;;;5.75;60.52
20368;BME280;10343;52.402;9.796;2023-01-29T01:30:19;102210.97;;;5.75;60.67
20368;BME280;10343;52.402;9.796;2023-01-29T01:32:48;102190.97;;;5.85;60.24
20368;BME280;10343;52.402;9.796;2023-01-29T01:35:16;102197.56;;;5.65;60.62
20368;BME280;10343;52.402;9.796;2023-01-29T01:37:44;102190.28;;;5.51;61.50
20368;BME280;10343;52.402;9.796;2023-01-29T01:40:15;102187.19;;;5.31;62.64
20368;BME280;10343;52.402;9.796;2023-01-29T01:42:48;102186.38;;;5.34;62.07
20368;BME280;10343;52.402;9.796;2023-01-29T01:45:18;102184.31;;;5.20;62.60
20368;BME280;10343;52.402;9.796;2023-01-29T01:47:50;102188.53;;;5.12;63.44
20368;BME280;10343;52.402;9.796;2023-01-29T01:50:23;102176.38;;;5.17;63.86
20368;BME280;10343;52.402;9.796;2023-01-29T01:52:57;102166.38;;;5.40;63.08
20368;BME280;10343;52.402;9.796;2023-01-29T01:55:28;102174.53;;;5.13;63.94
20368;BME280;10343;52.402;9.796;2023-01-29T01:58:03;102169.16;;;5.07;64.04
20368;BME280;10343;52.402;9.796;2023-01-29T02:00:33;102180.28;;;4.97;64.56
20368;BME280;10343;52.402;9.796;2023-01-29T02:03:01;102173.75;;;4.81;64.72
20368;BME280;10343;52.402;9.796;2023-01-29T02:05:48;102176.22;;;4.74;65.73
20368;BME280;10343;52.402;9.796;2023-01-29T02:08:42;102185.59;;;4.63;66.00
20368;BME280;10343;52.402;9.796;2023-01-29T02:11:29;102176.97;;;4.69;66.62
20368;BME280;10343;52.402;9.796;2023-01-29T02:13:59;102187.06;;;4.87;66.21
20368;BME280;10343;52.402;9.796;2023-01-29T02:16:27;102185.69;;;5.03;65.17
20368;BME280;10343;52.402;9.796;2023-01-29T02:18:55;102186.31;;;5.31;64.22
20368;BME280;10343;52.402;9.796;2023-01-29T02:21:39;102187.25;;;4.95;64.57
20368;BME280;10343;52.402;9.796;2023-01-29T02:24:36;102196.13;;;5.00;64.82
20368;BME280;10343;52.402;9.796;2023-01-29T02:27:13;102196.19;;;5.41;63.34
20368;BME280;10343;52.402;9.796;2023-01-29T02:29:52;102199.81;;;5.46;63.65
20368;BME280;10343;52.402;9.796;2023-01-29T02:32:28;102208.81;;;5.57;62.45
20368;BME280;10343;52.402;9.796;2023-01-29T02:35:05;102213.03;;;5.49;62.62
20368;BME280;10343;52.402;9.796;2023-01-29T02:38:02;102211.19;;;5.45;62.71
20368;BME280;10343;52.402;9.796;2023-01-29T02:40:38;102212.13;;;5.47;63.19
20368;BME280;10343;52.402;9.796;2023-01-29T02:43:15;102220.94;;;5.11;63.25
20368;BME280;10343;52.402;9.796;2023-01-29T02:45:50;102224.91;;;5.32;63.30
20368;BME280;10343;52.402;9.796;2023-01-29T02:48:22;102228.47;;;5.73;62.41
20368;BME280;10343;52.402;9.796;2023-01-29T02:50:57;102222.47;;;5.39;62.83
20368;BME280;10343;52.402;9.796;2023-01-29T02:53:31;102225.13;;;5.41;62.86
20368;BME280;10343;52.402;9.796;2023-01-29T02:56:06;102222.66;;;5.47;63.46
20368;BME280;10343;52.402;9.796;2023-01-29T02:58:40;102212.69;;;5.34;63.67
20368;BME280;10343;52.402;9.796;2023-01-29T03:01:15;102222.50;;;5.03;64.24
20368;BME280;10343;52.402;9.796;2023-01-29T03:03:49;102210.88;;;5.31;63.66
20368;BME280;10343;52.402;9.796;2023-01-29T03:06:22;102204.34;;;5.53;63.04
20368;BME280;10343;52.402;9.796;2023-01-29T03:08:54;102199.56;;;5.75;62.41
20368;BME280;10343;52.402;9.796;2023-01-29T03:11:26;102202.09;;;5.70;62.02
20368;BME280;10343;52.402;9.796;2023-01-29T03:13:58;102188.97;;;5.72;61.71
20368;BME280;10343;52.402;9.796;2023-01-29T03:16:34;102183.44;;;5.20;62.25
20368;BME280;10343;52.402;9.796;2023-01-29T03:19:05;102189.09;;;4.99;62.92
20368;BME280;10343;52.402;9.796;2023-01-29T03:21:38;102186.50;;;5.00;63.20
20368;BME280;10343;52.402;9.796;2023-01-29T03:24:34;102189.41;;;5.11;62.77
20368;BME280;10343;52.402;9.796;2023-01-29T03:27:27;102177.34;;;4.84;63.74
20368;BME280;10343;52.402;9.796;2023-01-29T03:30:18;102176.56;;;4.88;63.10
20368;BME280;10343;52.402;9.796;2023-01-29T03:33:20;102173.22;;;4.59;62.27
20368;BME280;10343;52.402;9.796;2023-01-29T03:35:55;102179.81;;;4.43;63.14
20368;BME280;10343;52.402;9.796;2023-01-29T03:38:26;102177.66;;;4.97;61.33
20368;BME280;10343;52.402;9.796;2023-01-29T03:41:00;102176.81;;;4.98;61.57
20368;BME280;10343;52.402;9.796;2023-01-29T03:43:39;102177.44;;;4.89;61.95
20368;BME280;10343;52.402;9.796;2023-01-29T03:46:13;102177.63;;;4.95;61.02
20368;BME280;10343;52.402;9.796;2023-01-29T03:48:52;102170.41;;;4.51;62.27
20368;BME280;10343;52.402;9.796;2023-01-29T03:51:27;102169.56;;;4.52;62.44
20368;BME280;10343;52.402;9.796;2023-01-29T03:54:04;102179.38;;;4.26;62.97
20368;BME280;10343;52.402;9.796;2023-01-29T03:56:41;102171.16;;;4.47;62.40
20368;BME280;10343;52.402;9.796;2023-01-29T04:02:30;102156.41;;;4.52;62.13
20368;BME280;10343;52.402;9.796;2023-01-29T04:05:10;102151.22;;;5.30;60.20
20368;BME280;10343;52.402;9.796;2023-01-29T04:07:56;102149.97;;;5.13;59.95
20368;BME280;10343;52.402;9.796;2023-01-29T04:10:26;102145.47;;;5.07;61.10
20368;BME280;10343;52.402;9.796;2023-01-29T04:12:59;102145.03;;;4.88;60.33
20368;BME280;10343;52.402;9.796;2023-01-29T04:15:31;102134.34;;;5.19;59.96
20368;BME280;10343;52.402;9.796;2023-01-29T04:18:03;102127.66;;;5.76;59.12
20368;BME280;10343;52.402;9.796;2023-01-29T04:20:54;102122.38;;;5.76;58.03
20368;BME280;10343;52.402;9.796;2023-01-29T04:23:23;102125.50;;;5.15;58.25
20368;BME280;10343;52.402;9.796;2023-01-29T04:26:05;102123.22;;;5.73;57.57
20368;BME280;10343;52.402;9.796;2023-01-29T04:28:50;102103.53;;;5.13;58.71
20368;BME280;10343;52.402;9.796;2023-01-29T04:31:24;102098.44;;;5.19;59.03
20368;BME280;10343;52.402;9.796;2023-01-29T04:34:02;102095.69;;;5.57;58.27
20368;BME280;10343;52.402;9.796;2023-01-29T04:36:40;102092.50;;;5.74;57.99
20368;BME280;10343;52.402;9.796;2023-01-29T04:39:14;102088.31;;;5.84;57.25
20368;BME280;10343;52.402;9.796;2023-01-29T04:41:49;102079.53;;;5.83;57.52
20368;BME280;10343;52.402;9.796;2023-01-29T04:44:25;102074.44;;;5.48;58.18
20368;BME280;10343;52.402;9.796;2023-01-29T04:47:03;102070.47;;;5.69;57.94
20368;BME280;10343;52.402;9.796;2023-01-29T04:49:38;102078.53;;;5.78;57.47
20368;BME280;10343;52.402;9.796;2023-01-29T04:52:16;102080.56;;;5.46;57.82
20368;BME280;10343;52.402;9.796;2023-01-29T04:54:58;102077.78;;;5.39;58.65
20368;BME280;10343;52.402;9.796;2023-01-29T04:57:32;102084.00;;;5.43;58.14
20368;BME280;10343;52.402;9.796;2023-01-29T05:00:05;102073.38;;;5.38;58.53
20368;BME280;10343;52.402;9.796;2023-01-29T05:02:38;102069.50;;;5.64;58.35
20368;BME280;10343;52.402;9.796;2023-01-29T05:05:08;102072.81;;;5.10;59.06
20368;BME280;10343;52.402;9.796;2023-01-29T05:07:40;102071.53;;;5.34;58.51
20368;BME280;10343;52.402;9.796;2023-01-29T05:10:12;102071.72;;;5.42;58.54
20368;BME280;10343;52.402;9.796;2023-01-29T05:12:44;102072.66;;;5.03;59.36
20368;BME280;10343;52.402;9.796;2023-01-29T05:15:15;102081.28;;;5.40;58.99
20368;BME280;10343;52.402;9.796;2023-01-29T05:17:44;102076.53;;;5.22;58.27
20368;BME280;10343;52.402;9.796;2023-01-29T05:20:12;102067.09;;;5.32;58.27
20368;BME280;10343;52.402;9.796;2023-01-29T05:22:42;102064.72;;;5.44;58.55
20368;BME280;10343;52.402;9.796;2023-01-29T05:25:20;102062.19;;;5.47;58.48
20368;BME280;10343;52.402;9.796;2023-01-29T05:27:49;102069.25;;;5.50;58.51
20368;BME280;10343;52.402;9.796;2023-01-29T05:30:33;102065.72;;;5.51;58.15
20368;BME280;10343;52.402;9.796;2023-01-29T05:33:02;102075.63;;;5.63;57.81
20368;BME280;10343;52.402;9.796;2023-01-29T05:35:30;102073.75;;;5.55;57.64
20368;BME280;10343;52.402;9.796;2023-01-29T05:38:00;102085.44;;;4.87;58.55
20368;BME280;10343;52.402;9.796;2023-01-29T05:40:27;102094.00;;;4.42;60.43
20368;BME280;10343;52.402;9.796;2023-01-29T05:42:55;102081.38;;;4.64;59.87
20368;BME280;10343;52.402;9.796;2023-01-29T05:45:23;102087.16;;;4.85;60.10
20368;BME280;10343;52.402;9.796;2023-01-29T05:47:54;102085.31;;;4.81;60.44
20368;BME280;10343;52.402;9.796;2023-01-29T05:50:23;102089.13;;;4.96;59.46
20368;BME280;10343;52.402;9.796;2023-01-29T05:52:55;102078.03;;;5.09;59.57
20368;BME280;10343;52.402;9.796;2023-01-29T05:55:25;102087.50;;;5.01;59.21
20368;BME280;10343;52.402;9.796;2023-01-29T05:57:54;102085.66;;;4.97;58.87
20368;BME280;10343;52.402;9.796;2023-01-29T06:00:23;102099.63;;;4.57;60.05
20368;BME280;10343;52.402;9.796;2023-01-29T06:02:51;102103.69;;;5.19;59.05
20368;BME280;10343;52.402;9.796;2023-01-29T06:05:19;102112.66;;;4.89;58.71
20368;BME280;10343;52.402;9.796;2023-01-29T06:07:47;102113.84;;;5.04;59.15
20368;BME280;10343;52.402;9.796;2023-01-29T06:10:17;102101.41;;;4.97;59.07
20368;BME280;10343;52.402;9.796;2023-01-29T06:12:46;102103.69;;;5.19;59.28
20368;BME280;10343;52.402;9.796;2023-01-29T06:15:15;102109.16;;;5.73;58.03
20368;BME280;10343;52.402;9.796;2023-01-29T06:17:45;102111.22;;;5.04;58.11
20368;BME280;10343;52.402;9.796;2023-01-29T06:20:13;102100.59;;;5.39;58.33
20368;BME280;10343;52.402;9.796;2023-01-29T06:22:41;102094.16;;;5.69;57.52
20368;BME280;10343;52.402;9.796;2023-01-29T06:25:09;102084.81;;;5.85;57.15
20368;BME280;10343;52.402;9.796;2023-01-29T06:27:37;102092.50;;;5.74;57.13
20368;BME280;10343;52.402;9.796;2023-01-29T06:30:10;102097.72;;;5.71;57.48
20368;BME280;10343;52.402;9.796;2023-01-29T06:32:38;102098.16;;;5.07;58.12
20368;BME280;10343;52.402;9.796;2023-01-29T06:35:07;102102.00;;;5.23;59.34
20368;BME280;10343;52.402;9.796;2023-01-29T06:37:36;102100.59;;;5.39;59.06
20368;BME280;10343;52.402;9.796;2023-01-29T06:40:04;102104.78;;;5.31;59.09
20368;BME280;10343;52.402;9.796;2023-01-29T06:42:34;102095.97;;;5.28;59.40
20368;BME280;10343;52.402;9.796;2023-01-29T06:45:02;102096.59;;;5.15;59.47
20368;BME280;10343;52.402;9.796;2023-01-29T06:47:31;102099.63;;;4.96;59.97
20368;BME280;10343;52.402;9.796;2023-01-29T06:50:00;102095.69;;;5.57;59.19
20368;BME280;10343;52.402;9.796;2023-01-29T06:52:28;102095.44;;;5.45;59.64
20368;BME280;10343;52.402;9.796;2023-01-29T06:54:55;102086.19;;;5.64;59.42
20368;BME280;10343;52.402;9.796;2023-01-29T06:57:23;102086.56;;;5.40;59.84
20368;BME280;10343;52.402;9.796;2023-01-29T06:59:51;102113.66;;;4.58;62.25
20368;BME280;10343;52.402;9.796;2023-01-29T07:02:19;102122.75;;;4.36;62.70
20368;BME280;10343;52.402;9.796;2023-01-29T07:04:48;102139.56;;;4.79;62.52
20368;BME280;10343;52.402;9.796;2023-01-29T07:07:16;102138.22;;;4.97;62.33
20368;BME280;10343;52.402;9.796;2023-01-29T07:09:44;102133.47;;;5.18;61.80
20368;BME280;10343;52.402;9.796;2023-01-29T07:12:12;102137.03;;;4.47;62.98
20368;BME280;10343;52.402;9.796;2023-01-29T07:14:40;102136.72;;;4.70;63.05
20368;BME280;10343;52.402;9.796;2023-01-29T07:17:08;102144.94;;;4.84;62.75
20368;BME280;10343;52.402;9.796;2023-01-29T07:19:35;102136.09;;;4.45;62.97
20368;BME280;10343;52.402;9.796;2023-01-29T07:22:05;102127.94;;;4.69;62.16
20368;BME280;10343;52.402;9.796;2023-01-29T07:24:33;102120.47;;;4.86;62.60
20368;BME280;10343;52.402;9.796;2023-01-29T07:27:01;102121.56;;;4.59;63.46
20368;BME280;10343;52.402;9.796;2023-01-29T07:29:28;102122.59;;;4.66;65.22
20368;BME280;10343;52.402;9.796;2023-01-29T07:31:56;102112.38;;;5.15;63.78
20368;BME280;10343;52.402;9.796;2023-01-29T07:34:24;102083.75;;;4.89;64.53
20368;BME280;10343;52.402;9.796;2023-01-29T07:36:53;102088.47;;;5.47;63.98
20368;BME280;10343;52.402;9.796;2023-01-29T07:39:23;102092.19;;;5.16;64.99
20368;BME280;10343;52.402;9.796;2023-01-29T07:41:51;102096.16;;;4.97;64.83
20368;BME280;10343;52.402;9.796;2023-01-29T07:44:21;102094.31;;;4.92;66.68
20368;BME280;10343;52.402;9.796;2023-01-29T07:46:49;102097.38;;;4.38;68.01
20368;BME280;10343;52.402;9.796;2023-01-29T07:49:17;102095.06;;;4.87;67.15
20368;BME280;10343;52.402;9.796;2023-01-29T07:51:45;102080.66;;;4.71;68.78
20368;BME280;10343;52.402;9.796;2023-01-29T07:54:13;102077.91;;;4.65;68.67
20368;BME280;10343;52.402;9.796;2023-01-29T07:56:42;102056.00;;;5.04;68.58
20368;BME280;10343;52.402;9.796;2023-01-29T07:59:10;102046.03;;;4.89;69.25
20368;BME280;10343;52.402;9.796;2023-01-29T08:01:38;102037.69;;;5.51;68.00
20368;BME280;10343;52.402;9.796;2023-01-29T08:04:06;102042.06;;;5.08;68.56
20368;BME280;10343;52.402;9.796;2023-01-29T08:06:34;102048.75;;;5.33;68.62
20368;BME280;10343;52.402;9.796;2023-01-29T08:09:02;102065.75;;;5.52;68.42
20368;BME280;10343;52.402;9.796;2023-01-29T08:11:29;102059.03;;;5.22;69.59
20368;BME280;10343;52.402;9.796;2023-01-29T08:13:59;102053.38;;;5.04;70.77
20368;BME280;10343;52.402;9.796;2023-01-29T08:16:27;102057.25;;;5.21;69.63
20368;BME280;10343;52.402;9.796;2023-01-29T08:18:54;102056.47;;;5.25;69.58
20368;BME280;10343;52.402;9.796;2023-01-29T08:21:22;102051.75;;;5.09;70.28
20368;BME280;10343;52.402;9.796;2023-01-29T08:23:50;102062.28;;;5.53;68.38
20368;BME280;10343;52.402;9.796;2023-01-29T08:26:18;102055.16;;;5.95;67.28
20368;BME280;10343;52.402;9.796;2023-01-29T08:28:46;102057.59;;;5.83;66.45
20368;BME280;10343;52.402;9.796;2023-01-29T08:31:16;102053.97;;;5.76;67.37
20368;BME280;10343;52.402;9.796;2023-01-29T08:33:46;102064.16;;;6.05;65.63
20368;BME280;10343;52.402;9.796;2023-01-29T08:36:14;102063.22;;;5.55;66.35
20368;BME280;10343;52.402;9.796;2023-01-29T08:38:42;102059.16;;;5.28;68.31
20368;BME280;10343;52.402;9.796;2023-01-29T08:41:10;102059.88;;;5.66;66.60
20368;BME280;10343;52.402;9.796;2023-01-29T08:43:37;102057.69;;;5.00;68.83
20368;BME280;10343;52.402;9.796;2023-01-29T08:46:06;102051.94;;;5.63;67.05
20368;BME280;10343;52.402;9.796;2023-01-29T08:48:43;102051.56;;;5.44;67.26
20368;BME280;10343;52.402;9.796;2023-01-29T08:51:12;102046.63;;;5.59;66.51
20368;BME280;10343;52.402;9.796;2023-01-29T08:53:41;102044.41;;;5.37;66.88
20368;BME280;10343;52.402;9.796;2023-01-29T08:56:11;102045.63;;;5.10;68.22
20368;BME280;10343;52.402;9.796;2023-01-29T08:58:39;102047.88;;;5.78;66.84
20368;BME280;10343;52.402;9.796;2023-01-29T09:01:07;102042.28;;;5.63;66.35
20368;BME280;10343;52.402;9.796;2023-01-29T09:03:36;102034.75;;;5.80;66.13
20368;BME280;10343;52.402;9.796;2023-01-29T09:06:08;102037.06;;;5.65;66.26
20368;BME280;10343;52.402;9.796;2023-01-29T09:08:36;102046.47;;;5.98;65.19
20368;BME280;10343;52.402;9.796;2023-01-29T09:11:05;102044.63;;;5.95;64.48
20368;BME280;10343;52.402;9.796;2023-01-29T09:13:33;102048.94;;;5.44;66.13
20368;BME280;10343;52.402;9.796;2023-01-29T09:16:02;102035.28;;;6.11;64.97
20368;BME280;10343;52.402;9.796;2023-01-29T09:18:30;102029.97;;;6.08;63.97
20368;BME280;10343;52.402;9.796;2023-01-29T09:20:58;102014.41;;;6.22;63.85
20368;BME280;10343;52.402;9.796;2023-01-29T09:23:29;102010.59;;;6.03;64.68
20368;BME280;10343;52.402;9.796;2023-01-29T09:25:57;101999.22;;;6.63;62.76
20368;BME280;10343;52.402;9.796;2023-01-29T09:28:26;102004.38;;;6.54;62.36
20368;BME280;10343;52.402;9.796;2023-01-29T09:30:54;102006.84;;;5.91;64.47
20368;BME280;10343;52.402;9.796;2023-01-29T09:33:22;102000.25;;;6.15;63.72
20368;BME280;10343;52.402;9.796;2023-01-29T09:35:51;102001.94;;;6.68;62.44
20368;BME280;10343;52.402;9.796;2023-01-29T09:38:19;102001.00;;;7.35;60.04
20368;BME280;10343;52.402;9.796;2023-01-29T09:40:55;102000.13;;;7.35;59.69
20368;BME280;10343;52.402;9.796;2023-01-29T09:43:33;101998.09;;;7.12;60.12
20368;BME280;10343;52.402;9.796;2023-01-29T09:46:14;101995.41;;;7.07;60.01
20368;BME280;10343;52.402;9.796;2023-01-29T09:48:44;101995.56;;;7.20;59.28
20368;BME280;10343;52.402;9.796;2023-01-29T09:51:19;101996.84;;;7.57;58.32
20368;BME280;10343;52.402;9.796;2023-01-29T09:53:53;101994.91;;;7.41;59.39
20368;BME280;10343;52.402;9.796;2023-01-29T09:56:25;101997.75;;;6.84;58.88
20368;BME280;10343;52.402;9.796;2023-01-29T09:58:56;101992.50;;;6.86;60.58
20368;BME280;10343;52.402;9.796;2023-01-29T10:01:32;101993.69;;;6.45;61.70
20368;BME280;10343;52.402;9.796;2023-01-29T10:04:21;101978.03;;;6.54;62.27
20368;BME280;10343;52.402;9.796;2023-01-29T10:07:03;101987.94;;;6.14;62.03
20368;BME280;10343;52.402;9.796;2023-01-29T10:09:50;101968.66;;;6.76;61.73
20368;BME280;10343;52.402;9.796;2023-01-29T10:12:40;101982.75;;;6.17;62.92
20368;BME280;10343;52.402;9.796;2023-01-29T10:15:25;101978.94;;;6.58;62.00
20368;BME280;10343;52.402;9.796;2023-01-29T10:18:09;101967.31;;;6.42;61.14
20368;BME280;10343;52.402;9.796;2023-01-29T10:20:50;101977.41;;;6.14;62.31
20368;BME280;10343;52.402;9.796;2023-01-29T10:23:23;101976.50;;;6.12;63.16
20368;BME280;10343;52.402;9.796;2023-01-29T10:25:53;101976.41;;;6.06;63.63
20368;BME280;10343;52.402;9.796;2023-01-29T10:28:27;101983.69;;;6.24;63.33
20368;BME280;10343;52.402;9.796;2023-01-29T10:30:59;101986.84;;;6.00;62.91
20368;BME280;10343;52.402;9.796;2023-01-29T10:33:32;101983.81;;;5.79;64.12
20368;BME280;10343;52.402;9.796;2023-01-29T10:36:30;101985.84;;;5.96;62.82
20368;BME280;10343;52.402;9.796;2023-01-29T10:38:59;101993.13;;;6.08;63.73
20368;BME280;10343;52.402;9.796;2023-01-29T10:44:39;101970.59;;;6.25;62.63
20368;BME280;10343;52.402;9.796;2023-01-29T10:47:43;101968.59;;;6.12;62.77
20368;BME280;10343;52.402;9.796;2023-01-29T10:50:18;101955.22;;;6.56;61.72
20368;BME280;10343;52.402;9.796;2023-01-29T10:53:02;101963.06;;;6.53;62.11
20368;BME280;10343;52.402;9.796;2023-01-29T10:55:42;101958.84;;;6.65;61.06
20368;BME280;10343;52.402;9.796;2023-01-29T10:58:21;101949.50;;;6.25;61.63
20368;BME280;10343;52.402;9.796;2023-01-29T11:00:55;101935.97;;;6.63;61.09
20368;BME280;10343;52.402;9.796;2023-01-29T11:03:25;101941.53;;;6.22;62.76
20368;BME280;10343;52.402;9.796;2023-01-29T11:06:01;101923.47;;;6.49;62.02
20368;BME280;10343;52.402;9.796;2023-01-29T11:08:37;101923.91;;;6.81;61.03
20368;BME280;10343;52.402;9.796;2023-01-29T11:11:08;101910.44;;;6.61;61.17
20368;BME280;10343;52.402;9.796;2023-01-29T11:13:43;101908.78;;;6.68;61.07
20368;BME280;10343;52.402;9.796;2023-01-29T11:16:15;101918.88;;;7.03;60.63
20368;BME280;10343;52.402;9.796;2023-01-29T11:18:52;101907.28;;;6.88;60.41
20368;BME280;10343;52.402;9.796;2023-01-29T11:21:21;101909.84;;;6.16;61.95
20368;BME280;10343;52.402;9.796;2023-01-29T11:23:50;101908.72;;;6.61;61.11
20368;BME280;10343;52.402;9.796;2023-01-29T11:26:20;101908.06;;;6.15;62.22
20368;BME280;10343;52.402;9.796;2023-01-29T11:28:50;101895.44;;;6.55;61.63
20368;BME280;10343;52.402;9.796;2023-01-29T11:31:21;101896.19;;;6.42;60.73
20368;BME280;10343;52.402;9.796;2023-01-29T11:33:52;101892.41;;;6.24;61.40
20368;BME280;10343;52.402;9.796;2023-01-29T11:36:26;101883.38;;;6.73;60.98
20368;BME280;10343;52.402;9.796;2023-01-29T11:39:18;101891.00;;;7.26;58.42
20368;BME280;10343;52.402;9.796;2023-01-29T11:41:55;101876.34;;;6.75;59.91
20368;BME280;10343;52.402;9.796;2023-01-29T11:44:29;101861.44;;;6.72;59.92
20368;BME280;10343;52.402;9.796;2023-01-29T11:47:11;101871.25;;;6.18;61.00
20368;BME280;10343;52.402;9.796;2023-01-29T11:49:45;101860.63;;;6.79;60.05
20368;BME280;10343;52.402;9.796;2023-01-29T11:52:16;101861.13;;;6.49;60.38
20368;BME280;10343;52.402;9.796;2023-01-29T11:54:48;101858.56;;;6.54;60.78
20368;BME280;10343;52.402;9.796;2023-01-29T11:57:23;101849.97;;;6.72;59.77
20368;BME280;10343;52.402;9.796;2023-01-29T11:59:54;101841.38;;;6.88;60.79
20368;BME280;10343;52.402;9.796;2023-01-29T12:02:29;101845.41;;;6.57;61.06
20368;BME280;10343;52.402;9.796;2023-01-29T12:05:02;101835.94;;;6.73;60.35
20368;BME280;10343;52.402;9.796;2023-01-29T12:07:31;101824.13;;;7.21;58.75
20368;BME280;10343;52.402;9.796;2023-01-29T12:10:01;101828.81;;;7.58;57.93
20368;BME280;10343;52.402;9.796;2023-01-29T12:12:34;101829.41;;;6.41;59.31
20368;BME280;10343;52.402;9.796;2023-01-29T12:15:14;101826.53;;;7.00;57.85
20368;BME280;10343;52.402;9.796;2023-01-29T12:17:47;101824.81;;;7.03;58.56
20368;BME280;10343;52.402;9.796;2023-01-29T12:20:22;101821.97;;;6.83;59.17
20368;BME280;10343;52.402;9.796;2023-01-29T12:22:56;101821.78;;;6.63;59.42
20368;BME280;10343;52.402;9.796;2023-01-29T12:25:37;101815.13;;;7.01;58.47
20368;BME280;10343;52.402;9.796;2023-01-29T12:28:16;101818.72;;;6.27;60.40
20368;BME280;10343;52.402;9.796;2023-01-29T12:30:52;101816.06;;;6.26;60.25
20368;BME280;10343;52.402;9.796;2023-01-29T12:33:28;101812.63;;;7.16;56.92
20368;BME280;10343;52.402;9.796;2023-01-29T12:36:10;101817.72;;;6.19;59.67
20368;BME280;10343;52.402;9.796;2023-01-29T12:38:47;101808.13;;;6.23;60.78
20368;BME280;10343;52.402;9.796;2023-01-29T12:41:24;101810.09;;;5.78;61.13
20368;BME280;10343;52.402;9.796;2023-01-29T12:43:58;101809.56;;;6.70;59.49
20368;BME280;10343;52.402;9.796;2023-01-29T12:46:33;101810.13;;;6.42;59.92
20368;BME280;10343;52.402;9.796;2023-01-29T12:49:14;101802.94;;;6.31;59.90
20368;BME280;10343;52.402;9.796;2023-01-29T12:51:50;101794.06;;;6.22;61.09
20368;BME280;10343;52.402;9.796;2023-01-29T12:54:27;101791.41;;;5.59;61.91
20368;BME280;10343;52.402;9.796;2023-01-29T12:57:01;101784.56;;;5.71;61.93
20368;BME280;10343;52.402;9.796;2023-01-29T12:59:35;101788.50;;;6.76;60.29
20368;BME280;10343;52.402;9.796;2023-01-29T13:02:16;101786.34;;;7.24;57.43
20368;BME280;10343;52.402;9.796;2023-01-29T13:04:53;101785.22;;;5.57;61.70
20368;BME280;10343;52.402;9.796;2023-01-29T13:07:30;101779.94;;;5.54;62.97
20368;BME280;10343;52.402;9.796;2023-01-29T13:10:04;101770.75;;;5.86;61.58
20368;BME280;10343;52.402;9.796;2023-01-29T13:12:34;101767.09;;;6.43;60.00
20368;BME280;10343;52.402;9.796;2023-01-29T13:15:09;101762.69;;;6.42;60.19
20368;BME280;10343;52.402;9.796;2023-01-29T13:17:44;101756.41;;;6.29;60.51
20368;BME280;10343;52.402;9.796;2023-01-29T13:20:19;101763.56;;;6.43;60.12
20368;BME280;10343;52.402;9.796;2023-01-29T13:22:51;101753.84;;;6.36;60.75
20368;BME280;10343;52.402;9.796;2023-01-29T13:25:24;101752.44;;;6.70;60.17
20368;BME280;10343;52.402;9.796;2023-01-29T13:27:52;101739.19;;;6.62;59.68
20368;BME280;10343;52.402;9.796;2023-01-29T13:30:25;101744.44;;;6.61;60.33
20368;BME280;10343;52.402;9.796;2023-01-29T13:32:55;101727.22;;;6.99;59.39
20368;BME280;10343;52.402;9.796;2023-01-29T13:35:39;101730.94;;;7.22;58.44
20368;BME280;10343;52.402;9.796;2023-01-29T13:38:22;101735.63;;;6.57;59.36